Latest Weather Observations for Cato Island

IDQ60801

Issued at 8:02 pm EST Sunday 26 February 2017 (issued every 30 minutes, with the page automatically refreshed every 10 minutes)

About weather observations | Map of weather stations | Latest weather observations for QLD | Other Formats
Station Details ID: 200601 Name: CATO ISLAND Lat: -23.25 Lon: 155.54 Height: 6.3 m
Data from the previous 72 hours. | See also: Recent months for locations in Queensland
Date/Time
EST
Temp
°C
App
Temp
°C
Dew
Point
°C
Rel
Hum
%
Delta-T
°C
Wind Press
QNH
hPa
Press
MSL
hPa
Rain since
9am
mm
Dir  Spd
km/h
Gust
km/h
Spd
kts
Gust
kts
26/08:00pm 26.9 - - - - ESE 39 46 21 25 1012.7 - -
26/07:30pm 27.0 - - - - ESE 39 48 21 26 1012.4 - -
26/07:00pm 26.9 - - - - ESE 35 43 19 23 1012.3 1012.3 -
26/06:30pm 26.6 - - - - ESE 33 37 18 20 1012.0 - -
26/06:00pm 26.7 - - - - E 33 41 18 22 1011.7 1011.7 -
26/05:59pm 26.8 - - - - E 33 41 18 22 1011.7 - -
26/05:30pm 26.1 - - - - E 17 20 9 11 1011.7 - -
26/05:00pm 25.7 - - - - E 20 26 11 14 1011.6 1011.6 -
26/04:30pm 25.0 - - - - ENE 20 22 11 12 1011.6 - -
26/04:00pm 25.7 - - - - ESE 32 37 17 20 1011.7 1011.7 -
26/03:30pm 25.4 - - - - SE 37 43 20 23 1011.4 - -
26/03:00pm 26.0 - - - - SSE 32 35 17 19 1011.3 1011.3 -
26/02:30pm 25.9 - - - - SE 37 44 20 24 1011.3 - -
26/02:29pm 26.0 - - - - SE 37 44 20 24 1011.4 - -
26/02:00pm 27.1 - - - - E 22 26 12 14 1011.5 1011.5 -
26/01:30pm 27.3 - - - - E 22 28 12 15 1011.4 - -
26/01:00pm 27.4 - - - - E 28 33 15 18 1011.7 1011.7 -
26/12:30pm 27.8 - - - - ENE 30 35 16 19 1011.9 - -
26/12:00pm 27.1 - - - - E 32 37 17 20 1012.2 1012.2 -
26/11:30am 26.8 - - - - E 33 41 18 22 1012.4 - -
26/11:00am 27.4 - - - - E 26 30 14 16 1012.6 1012.6 -
26/10:30am 27.2 - - - - E 28 33 15 18 1012.7 - -
26/10:00am 26.9 - - - - E 28 35 15 19 1012.7 1012.7 -
26/09:30am 27.4 - - - - SE 24 30 13 16 1012.8 - -
26/09:00am 26.5 - - - - E 24 28 13 15 1012.6 1012.6 -
26/08:30am 26.5 - - - - ESE 32 35 17 19 1012.5 - -
26/08:00am 27.1 - - - - ESE 26 32 14 17 1012.1 1012.1 -
26/07:30am 27.0 - - - - ESE 22 26 12 14 1011.9 - -
26/07:00am 27.1 - - - - ESE 20 26 11 14 1011.9 1011.9 -
26/06:00am 26.5 - - - - ESE 22 24 12 13 1011.2 1011.2 -
26/05:00am 26.5 - - - - E 24 28 13 15 1010.5 1010.5 -
26/04:30am 26.3 - - - - E 22 26 12 14 1010.4 - -
26/04:00am 26.5 - - - - E 22 26 12 14 1010.3 1010.3 -
26/03:30am 26.3 - - - - E 24 28 13 15 1010.2 - -
26/03:00am 26.4 - - - - E 24 30 13 16 1010.2 1010.2 -
26/02:30am 26.5 - - - - E 24 28 13 15 1010.2 - -
26/02:00am 26.5 - - - - E 24 30 13 16 1010.4 1010.4 -
26/01:30am 26.4 - - - - ESE 26 30 14 16 1010.8 - -
26/01:00am 26.5 - - - - E 28 32 15 17 1011.1 1011.1 -
26/12:30am 26.4 - - - - ESE 24 30 13 16 1011.4 - -
26/12:00am 26.2 - - - - ESE 24 28 13 15 1011.6 1011.6 -
 
Date/Time
EST
Temp
°C
App
Temp
°C
Dew
Point
°C
Rel
Hum
%
Delta-T
°C
Wind Press
QNH
hPa
Press
MSL
hPa
Rain since
9am
mm
Dir  Spd
km/h
Gust
km/h
Spd
kts
Gust
kts
25/11:30pm 25.9 - - - - SE 28 33 15 18 1011.9 - -
25/11:00pm 25.6 - - - - ESE 37 46 20 25 1012.3 1012.3 -
25/10:30pm 26.7 - - - - ESE 30 33 16 18 1012.4 - -
25/10:00pm 26.8 - - - - ESE 30 35 16 19 1012.5 1012.5 -
25/09:30pm 26.7 - - - - ESE 28 33 15 18 1012.6 - -
25/09:00pm 26.8 - - - - ESE 28 33 15 18 1012.6 1012.6 -
25/08:30pm 26.8 - - - - ESE 30 35 16 19 1012.5 - -
25/08:00pm 26.8 - - - - SE 32 39 17 21 1012.2 1012.2 -
25/07:30pm 26.6 - - - - SE 30 35 16 19 1011.9 - -
25/07:00pm 26.5 - - - - ESE 28 33 15 18 1011.9 1011.9 -
25/06:30pm 26.0 - - - - ESE 33 41 18 22 1011.5 - -
25/06:00pm 25.6 - - - - ESE 37 41 20 22 1011.4 1011.4 -
25/05:30pm 25.8 - - - - ESE 44 50 24 27 1011.0 - -
25/05:07pm 26.5 - - - - SE 33 54 18 29 1010.8 - -
25/05:00pm 27.2 - - - - SE 30 35 16 19 1010.8 1010.8 -
25/04:30pm 27.0 - - - - SE 28 32 15 17 1010.7 - -
25/04:00pm 27.2 - - - - SE 26 32 14 17 1010.7 1010.7 -
25/03:30pm 27.2 - - - - SE 28 32 15 17 1010.7 - -
25/03:00pm 27.5 - - - - SE 28 33 15 18 1010.7 1010.7 -
25/02:30pm 27.8 - - - - SE 26 32 14 17 1010.7 - -
25/02:00pm 27.8 - - - - SE 22 28 12 15 1011.2 1011.2 -
25/01:30pm 28.0 - - - - ESE 24 28 13 15 1011.4 - -
25/01:00pm 27.9 - - - - SE 22 26 12 14 1011.7 1011.8 -
25/12:30pm 28.0 - - - - ESE 22 30 12 16 1012.0 - -
25/12:00pm 28.1 - - - - SE 22 26 12 14 1012.3 1012.3 -
25/11:00am 28.2 - - - - SE 22 - 12 - - 1012.9 -
25/10:30am 27.9 - - - - SE 24 28 13 15 1013.0 - -
25/10:00am 27.7 - - - - ESE 22 - 12 - - 1013.3 -
25/09:00am 27.5 - - - - ESE 24 - 13 - - 1013.0 -
25/08:30am 27.4 - - - - ESE 24 30 13 16 1013.1 - -
25/08:00am 27.4 - - - - ESE 24 28 13 15 1012.8 1012.8 -
25/07:30am 27.2 - - - - ESE 26 30 14 16 1012.8 - -
25/07:00am 27.1 - - - - ESE 26 32 14 17 1012.6 1012.6 -
25/06:30am 26.6 - - - - ESE 28 32 15 17 1012.4 - -
25/06:00am 26.6 - - - - E 26 30 14 16 1012.1 1012.1 -
25/05:00am 26.3 - - - - E 28 32 15 17 1011.7 1011.7 -
25/04:30am 24.9 - - - - E 33 48 18 26 1011.7 - -
25/04:25am 25.7 - - - - E 30 48 16 26 1011.5 - -
25/04:00am 26.6 - - - - E 26 30 14 16 1011.4 1011.4 -
25/03:30am 26.6 - - - - ESE 26 30 14 16 1011.4 - -
25/03:00am 26.7 - - - - E 26 32 14 17 1011.3 1011.4 -
25/02:30am 26.6 - - - - ESE 26 33 14 18 1011.4 - -
25/02:00am 26.6 - - - - ESE 26 32 14 17 1011.4 1011.4 -
25/01:30am 26.6 - - - - E 28 32 15 17 1011.6 - -
25/01:00am 26.7 - - - - E 28 32 15 17 1011.8 1011.8 -
25/12:30am 26.9 - - - - ESE 28 32 15 17 1012.2 - -
25/12:00am 26.6 - - - - E 26 30 14 16 1012.5 1012.5 -
 
Date/Time
EST
Temp
°C
App
Temp
°C
Dew
Point
°C
Rel
Hum
%
Delta-T
°C
Wind Press
QNH
hPa
Press
MSL
hPa
Rain since
9am
mm
Dir  Spd
km/h
Gust
km/h
Spd
kts
Gust
kts
24/11:30pm 26.5 - - - - E 26 33 14 18 1013.1 - -
24/11:00pm 26.9 - - - - ESE 28 32 15 17 1013.2 1013.2 -
24/10:30pm 26.9 - - - - ESE 32 37 17 20 1013.5 - -
24/10:00pm 26.7 - - - - E 33 41 18 22 1013.6 1013.7 -
24/09:30pm 26.1 - - - - ESE 37 46 20 25 1013.8 - -
24/09:22pm 26.0 - - - - SE 43 50 23 27 1013.8 - -
24/09:00pm 26.9 - - - - E 28 35 15 19 1013.9 1013.9 -
24/08:30pm 27.4 - - - - ESE 32 39 17 21 1013.7 - -
24/08:00pm 26.9 - - - - ESE 33 39 18 21 1013.6 1013.6 -
24/07:30pm 27.2 - - - - ESE 30 35 16 19 1013.2 - -
24/07:00pm 27.1 - - - - ESE 28 33 15 18 1013.3 1013.3 -
24/06:30pm 27.4 - - - - SE 32 35 17 19 1013.1 - -
24/06:00pm 27.3 - - - - SE 32 35 17 19 1012.8 1012.8 -
24/05:30pm 27.5 - - - - SE 33 39 18 21 1012.6 - -
24/05:00pm 27.4 - - - - SSE 28 32 15 17 1012.5 1012.5 -
24/04:30pm 27.4 - - - - SE 30 33 16 18 1012.5 - -
24/04:00pm 27.7 - - - - SE 30 35 16 19 1012.4 1012.4 -
24/03:30pm 27.8 - - - - SE 30 35 16 19 1012.6 - -
24/03:00pm 27.7 - - - - SE 30 33 16 18 1012.6 1012.6 -
24/02:30pm 27.5 - - - - SE 32 35 17 19 1012.6 - -
24/02:00pm 27.5 - - - - SE 39 46 21 25 1012.7 1012.7 -
24/01:49pm 28.0 - - - - ESE 37 43 20 23 1012.8 - -
24/01:30pm 27.8 - - - - SSE 35 39 19 21 1012.9 - -
24/01:00pm 27.9 - - - - SSE 33 37 18 20 1013.1 1013.1 -
24/12:30pm 28.3 - - - - SE 28 32 15 17 1013.5 - -
24/12:00pm 28.2 - - - - SE 30 - 16 - - 1013.7 -
24/11:30am 28.2 - - - - SE 28 32 15 17 1014.1 - -
24/11:00am 28.3 - - - - SE 28 33 15 18 1014.3 1014.3 -
24/10:00am 27.9 - - - - ESE 24 32 13 17 1014.7 1014.7 -
24/09:30am 28.0 - - - - SE 24 28 13 15 1014.7 - -
24/09:00am 28.1 - - - - SE 24 28 13 15 1014.6 1014.6 -
24/08:30am 27.8 - - - - SE 26 32 14 17 1014.6 - -
24/08:00am 27.7 - - - - ESE 26 32 14 17 1014.5 1014.5 -
24/07:30am 27.4 - - - - ESE 28 32 15 17 1014.3 - -
24/07:00am 27.4 - - - - ESE 26 33 14 18 1014.3 1014.3 -
24/06:30am 27.3 - - - - ESE 26 32 14 17 1014.0 - -
24/06:00am 27.1 - - - - ESE 28 32 15 17 1013.7 1013.7 -
24/05:30am 26.8 - - - - ESE 30 33 16 18 1013.4 - -
24/05:00am 26.9 - - - - ESE 30 33 16 18 1013.3 1013.3 -
24/04:30am 26.9 - - - - ESE 32 35 17 19 1013.2 - -
24/04:00am 27.0 - - - - ESE 30 35 16 19 1013.1 1013.1 -
24/03:30am 26.9 - - - - ESE 32 35 17 19 1013.0 - -
24/03:00am 26.9 - - - - ESE 32 35 17 19 1013.1 1013.1 -
24/02:30am 27.0 - - - - ESE 33 39 18 21 1013.1 - -
24/02:00am 27.0 - - - - ESE 35 39 19 21 1013.3 1013.3 -
24/01:30am 27.1 - - - - ESE 37 41 20 22 1013.6 - -
24/01:00am 26.9 - - - - ESE 33 39 18 21 1014.0 1014.0 -
24/12:30am 27.1 - - - - ESE 33 39 18 21 1014.1 - -
24/12:00am 26.7 - - - - ESE 33 37 18 20 1014.4 1014.4 -
 
Date/Time
EST
Temp
°C
App
Temp
°C
Dew
Point
°C
Rel
Hum
%
Delta-T
°C
Wind Press
QNH
hPa
Press
MSL
hPa
Rain since
9am
mm
Dir  Spd
km/h
Gust
km/h
Spd
kts
Gust
kts
23/11:30pm 26.0 - - - - E 33 43 18 23 1014.6 - -
23/11:00pm 25.7 - - - - ESE 32 50 17 27 1014.7 1014.7 -
23/10:58pm 26.6 - - - - ESE 30 50 16 27 1014.7 - -
23/10:30pm 27.4 - - - - ESE 32 35 17 19 1014.6 - -
23/10:00pm 27.5 - - - - SE 32 37 17 20 1014.7 1014.7 -
23/09:30pm 27.5 - - - - ESE 28 32 15 17 1014.8 - -
23/09:00pm 27.5 - - - - SE 30 33 16 18 1014.9 1014.9 -
23/08:30pm 27.4 - - - - SE 30 35 16 19 1014.8 - -

Other Formats:

Comma delimited format used in spreadsheet applications
http://www.bom.gov.au/fwo/IDQ60801/IDQ60801.94394.axf

JavaScript Object Notation format (JSON) in row-major order
http://www.bom.gov.au/fwo/IDQ60801/IDQ60801.94394.json